Terminal Aerodrome Forecast
Issued by NWS

Home | Current Version | Previous Version | Graphics & Text | Print | Product List | Glossary On
Versions: 1 2 3 4 5 6 7 8 9 10 11 12 13 14 15
000
FTUS43 KMPX 190500
TAFAXN
TAF
KAXN 190538Z 1906/2006 13018G27KT P6SM FEW060 BKN150
     FM190800 15017G25KT P6SM VCSH OVC060
      TEMPO 1909/1912 5SM -TSRA BKN040CB OVC060
     FM191500 20015G22KT P6SM SCT040 BKN050
     FM192200 23013KT P6SM SCT100
     FM200300 24005KT P6SM SKC=

USA.gov is the U.S. government's official web portal to all federal, state and local government web resources and services.